createdAt,value
2022-10-14T15:49:16.053Z,7.49
2022-10-14T15:50:20.291Z,5.17
2022-10-14T15:51:29.653Z,5.92
2022-10-14T15:52:33.346Z,6.77
2022-10-14T15:53:37.454Z,4.94
2022-10-14T15:54:40.972Z,4.27
2022-10-14T15:55:44.545Z,6.86
2022-10-14T15:56:48.009Z,5.78
2022-10-14T15:57:51.928Z,4.95
2022-10-14T15:58:55.012Z,5.95
2022-10-14T15:59:58.404Z,6.88
2022-10-14T16:01:04.474Z,6.06
2022-10-14T16:02:08.259Z,4.44
2022-10-14T16:03:12.042Z,4.24
2022-10-14T16:04:15.374Z,6.22
2022-10-14T16:05:20.326Z,6.12
2022-10-14T16:06:26.548Z,5.54
2022-10-14T16:07:29.405Z,5.32
2022-10-14T16:08:34.825Z,6.11
2022-10-14T16:09:37.770Z,4.02
2022-10-14T16:10:41.405Z,5.81
2022-10-14T16:11:44.572Z,6.51
2022-10-14T16:12:47.761Z,7.08
2022-10-14T16:13:50.830Z,6.68
2022-10-14T16:14:54.009Z,8.16
2022-10-14T16:15:56.894Z,5.90
2022-10-14T16:17:03.056Z,8.70
2022-10-14T16:18:04.265Z,5.49
2022-10-14T16:19:07.259Z,5.31
2022-10-14T16:20:15.040Z,4.12
2022-10-14T16:21:19.749Z,6.31
2022-10-14T16:23:43.231Z,5.60
2022-10-14T16:24:46.603Z,6.49
2022-10-14T16:25:52.350Z,9.75
2022-10-14T16:27:09.034Z,7.30
2022-10-14T16:28:12.448Z,7.86
2022-10-14T16:29:15.506Z,6.79
2022-10-14T16:30:29.508Z,7.25
2022-10-14T16:31:32.534Z,8.69
2022-10-14T16:32:36.526Z,9.46
2022-10-14T16:33:43.151Z,7.83
2022-10-14T16:34:44.861Z,6.93
2022-10-14T16:37:12.389Z,7.23
2022-10-14T16:41:00.496Z,8.45
2022-10-14T16:43:37.801Z,5.43
2022-10-14T16:44:44.800Z,6.00
2022-10-14T16:45:57.211Z,6.00
2022-10-14T16:48:21.129Z,7.35
2022-10-14T16:49:24.459Z,7.61
2022-10-14T16:50:34.510Z,10.41
2022-10-14T16:53:11.072Z,7.63
2022-10-14T16:54:21.540Z,7.65
2022-10-14T16:55:27.080Z,8.83
2022-10-14T16:56:33.500Z,7.42
2022-10-14T16:57:37.619Z,6.58
2022-10-14T16:58:41.709Z,8.00
2022-10-14T16:59:45.314Z,6.79
2022-10-14T17:00:48.900Z,8.45
2022-10-14T17:01:53.125Z,6.65
2022-10-14T17:02:56.323Z,6.86
2022-10-14T17:05:24.255Z,6.34
2022-10-14T17:06:30.007Z,10.92
2022-10-14T17:07:43.143Z,7.14
2022-10-14T17:08:46.150Z,6.80
2022-10-14T17:09:52.554Z,5.88
2022-10-14T17:11:02.074Z,7.02
2022-10-14T17:12:21.748Z,7.15
2022-10-14T17:13:25.308Z,6.63
2022-10-14T17:14:40.202Z,5.72
2022-10-14T17:15:43.970Z,7.25
2022-10-14T17:16:49.265Z,7.27
2022-10-14T17:17:53.331Z,6.84
2022-10-14T17:23:12.324Z,7.25
2022-10-14T17:24:28.203Z,7.66
2022-10-14T17:25:38.843Z,6.55
2022-10-14T17:27:05.026Z,5.67
2022-10-14T17:28:18.103Z,7.01
2022-10-14T17:29:22.009Z,5.52
2022-10-14T17:30:25.877Z,5.11
2022-10-14T17:32:52.013Z,6.18
2022-10-14T17:33:55.796Z,8.11
2022-10-14T17:35:00.215Z,6.36
2022-10-14T17:36:03.507Z,7.88
2022-10-14T17:38:12.575Z,5.47
2022-10-14T17:40:36.302Z,10.27
2022-10-14T17:41:39.852Z,8.72
2022-10-14T17:42:44.958Z,6.01
2022-10-14T17:45:09.162Z,4.78
2022-10-14T17:46:18.345Z,7.37
2022-10-14T17:47:21.903Z,4.45
2022-10-14T17:48:25.867Z,6.77
2022-10-14T17:49:33.394Z,5.66
2022-10-14T17:50:52.490Z,5.72
2022-10-14T17:51:55.529Z,6.85
2022-10-14T17:52:59.223Z,5.90
2022-10-14T17:54:03.009Z,8.17
2022-10-14T17:55:06.028Z,6.26
2022-10-14T17:56:09.990Z,5.57
2022-10-14T17:57:13.792Z,5.31
2022-10-14T17:58:18.619Z,5.26
2022-10-14T17:59:23.841Z,6.25
2022-10-14T18:00:37.068Z,6.64
2022-10-14T18:02:01.724Z,6.18
2022-10-14T18:02:48.033Z,7.12
2022-10-14T18:03:56.960Z,7.71
2022-10-14T18:05:03.416Z,7.90
2022-10-14T18:06:21.682Z,8.14
2022-10-14T18:07:25.295Z,7.28
2022-10-14T18:08:29.864Z,5.72
2022-10-14T18:09:44.667Z,7.79
2022-10-14T18:10:55.303Z,7.54
2022-10-14T18:12:09.494Z,7.54
2022-10-14T18:13:28.758Z,7.02
2022-10-14T18:14:34.669Z,7.41
2022-10-14T18:15:38.690Z,7.71
2022-10-14T18:16:41.635Z,7.61
2022-10-14T18:17:45.375Z,9.73
2022-10-14T18:18:57.163Z,8.27
2022-10-14T18:20:05.309Z,6.86
2022-10-14T18:21:09.166Z,7.68
2022-10-14T18:22:13.758Z,8.02
2022-10-14T18:23:22.200Z,6.88
2022-10-14T18:24:32.225Z,6.96
2022-10-14T18:25:40.825Z,7.18
2022-10-14T18:26:51.992Z,5.83
2022-10-14T18:28:02.022Z,4.62
2022-10-14T18:29:13.446Z,6.72
2022-10-14T18:30:17.725Z,5.58
2022-10-14T18:31:25.409Z,5.54
2022-10-14T18:32:31.140Z,6.32
2022-10-14T18:33:38.768Z,5.38
2022-10-14T18:34:47.232Z,7.25
2022-10-14T18:35:51.300Z,6.38
2022-10-14T18:36:55.033Z,6.84
2022-10-14T18:37:59.134Z,7.76
2022-10-14T18:39:03.758Z,8.59
2022-10-14T18:41:27.851Z,7.66
2022-10-14T18:42:31.373Z,6.89
2022-10-14T18:43:35.404Z,7.19
2022-10-14T18:44:38.352Z,8.10
2022-10-14T18:45:47.840Z,6.06
2022-10-14T18:47:00.781Z,5.20
2022-10-14T18:48:12.484Z,6.70
2022-10-14T18:50:40.245Z,6.00
2022-10-14T18:51:47.587Z,6.53
2022-10-14T18:54:16.460Z,7.18
2022-10-14T18:55:29.849Z,5.62
2022-10-14T18:56:34.457Z,6.36
2022-10-14T18:57:53.879Z,6.79
2022-10-14T18:58:57.646Z,6.03
2022-10-14T19:00:01.564Z,6.22
2022-10-14T19:01:06.135Z,6.48
2022-10-14T19:02:10.485Z,4.27
2022-10-14T19:03:16.113Z,5.24
2022-10-14T19:04:19.328Z,5.98
2022-10-14T19:05:23.403Z,7.03
2022-10-14T19:06:26.993Z,7.65
2022-10-14T19:07:32.419Z,7.54
2022-10-14T19:08:39.414Z,6.81
2022-10-14T19:09:44.005Z,7.35
2022-10-14T19:10:49.146Z,7.60
2022-10-14T19:11:52.840Z,8.77
2022-10-14T19:12:56.748Z,8.48
2022-10-14T19:15:20.614Z,7.38
2022-10-14T19:16:25.115Z,6.73
2022-10-14T19:17:30.553Z,6.76
2022-10-14T19:18:34.041Z,7.28
2022-10-14T19:19:37.854Z,10.16
2022-10-14T19:20:41.452Z,11.11
2022-10-14T19:21:45.221Z,6.66
2022-10-14T19:22:56.719Z,7.57
2022-10-14T19:25:20.989Z,5.94
2022-10-14T19:26:33.373Z,6.49
2022-10-14T19:27:37.045Z,6.80
2022-10-14T19:31:28.951Z,8.50
2022-10-14T19:32:32.820Z,6.74
2022-10-14T19:33:50.412Z,7.18
2022-10-14T19:34:54.238Z,7.12
2022-10-14T19:36:05.630Z,7.76
2022-10-14T19:38:29.234Z,6.01
2022-10-14T19:39:34.440Z,6.44
2022-10-14T19:40:39.848Z,7.60
2022-10-14T19:41:43.844Z,7.38
2022-10-14T19:42:52.994Z,7.46
2022-10-14T19:44:08.306Z,7.61
2022-10-14T19:46:33.633Z,8.11
2022-10-14T19:49:10.183Z,9.53
2022-10-14T19:52:59.485Z,9.19
2022-10-14T19:58:08.947Z,8.48
2022-10-14T19:59:12.848Z,6.09
2022-10-14T20:02:59.580Z,7.65
2022-10-14T20:09:29.923Z,5.18
2022-10-14T20:10:34.427Z,6.07
2022-10-14T20:11:53.315Z,6.25
2022-10-14T20:13:10.386Z,8.63
2022-10-14T20:15:34.875Z,6.09
2022-10-14T20:18:14.417Z,8.07
2022-10-14T20:24:19.498Z,6.09
2022-10-14T20:27:01.360Z,6.01
2022-10-14T20:28:13.168Z,6.93
2022-10-14T20:29:17.367Z,10.51
2022-10-14T20:30:20.545Z,9.28
2022-10-14T20:31:36.281Z,6.54
2022-10-14T20:32:41.757Z,7.59
2022-10-14T20:33:51.298Z,8.41
2022-10-14T20:34:58.253Z,6.39
2022-10-14T20:36:12.258Z,9.98
2022-10-14T20:38:43.970Z,9.67
2022-10-14T20:39:55.120Z,7.77
2022-10-14T20:41:10.081Z,5.76
2022-10-14T20:42:20.789Z,8.16
2022-10-14T20:43:24.335Z,8.97
2022-10-14T20:45:45.819Z,8.00
2022-10-14T20:46:58.496Z,6.21
2022-10-14T20:48:07.177Z,6.17
2022-10-14T20:49:10.975Z,7.42
2022-10-14T20:50:16.600Z,7.80
2022-10-14T20:51:23.339Z,10.32
2022-10-14T20:52:27.065Z,6.71
2022-10-14T20:54:58.177Z,10.70
2022-10-14T20:56:01.789Z,7.41
2022-10-14T20:57:05.588Z,6.52
2022-10-14T20:58:09.476Z,8.32
2022-10-14T20:59:13.790Z,8.30
2022-10-14T21:00:19.229Z,6.53
2022-10-14T21:01:22.965Z,4.80
2022-10-14T21:02:26.816Z,6.11
2022-10-14T21:03:34.405Z,8.20
2022-10-14T21:04:38.312Z,8.58
2022-10-14T21:05:41.485Z,10.92
2022-10-14T21:06:47.941Z,7.17
2022-10-14T21:07:51.949Z,7.57
2022-10-14T21:08:55.869Z,8.21
2022-10-14T21:10:20.025Z,8.07
2022-10-14T21:12:48.698Z,6.51
2022-10-14T21:13:52.397Z,7.26
2022-10-14T21:14:55.985Z,8.91
2022-10-14T21:15:59.491Z,7.20
2022-10-14T21:17:06.535Z,10.40
2022-10-14T21:18:14.051Z,6.15
2022-10-14T21:19:17.828Z,6.91
2022-10-14T21:20:21.217Z,8.43
2022-10-14T21:21:24.619Z,7.18
2022-10-14T21:22:28.100Z,6.55
2022-10-14T21:23:31.590Z,6.82
2022-10-14T21:24:35.115Z,6.56
2022-10-14T21:25:40.916Z,6.65
2022-10-14T21:26:44.517Z,12.47
2022-10-14T21:27:47.896Z,12.58
2022-10-14T21:28:51.755Z,5.85
2022-10-14T21:31:04.845Z,6.72
2022-10-14T21:32:10.765Z,7.16
2022-10-14T21:33:19.339Z,8.26
2022-10-14T21:34:22.752Z,8.73
2022-10-14T21:35:26.642Z,8.09
2022-10-14T21:36:30.131Z,11.38
2022-10-14T21:37:33.936Z,8.32
2022-10-14T21:38:39.888Z,8.68
2022-10-14T21:39:43.569Z,11.50
2022-10-14T21:40:51.141Z,10.46
2022-10-14T21:41:54.028Z,8.62
2022-10-14T21:42:57.420Z,7.89
2022-10-14T21:44:01.128Z,6.57
2022-10-14T21:45:04.405Z,8.84
2022-10-14T21:46:07.813Z,9.14
2022-10-14T21:47:11.367Z,8.21
2022-10-14T21:48:15.684Z,10.50
2022-10-14T21:49:19.691Z,9.11
2022-10-14T21:50:23.484Z,8.35
2022-10-14T21:51:34.155Z,8.16
2022-10-14T21:52:44.581Z,8.38
2022-10-14T21:53:47.455Z,7.83
2022-10-14T21:54:52.295Z,7.46
2022-10-14T21:55:55.469Z,11.77
2022-10-14T21:56:58.973Z,10.79
2022-10-14T21:58:02.188Z,8.67
2022-10-14T21:59:05.327Z,8.84
2022-10-14T22:00:08.803Z,6.71
2022-10-14T22:01:17.059Z,6.25
2022-10-14T22:02:20.294Z,9.06
2022-10-14T22:03:23.706Z,16.95
2022-10-14T22:04:28.034Z,9.12
2022-10-14T22:05:31.369Z,8.96
2022-10-14T22:06:34.660Z,11.07
2022-10-14T22:07:52.420Z,19.09
2022-10-14T22:08:56.590Z,18.74
2022-10-14T22:10:01.103Z,19.81
2022-10-14T22:11:04.381Z,14.22
2022-10-14T22:12:08.183Z,9.49
2022-10-14T22:13:11.270Z,8.95
2022-10-14T22:14:14.789Z,8.89
2022-10-14T22:15:18.043Z,9.30
2022-10-14T22:16:21.896Z,11.88
2022-10-14T22:17:25.814Z,8.04
2022-10-14T22:18:30.253Z,9.45
2022-10-14T22:19:38.802Z,11.70
2022-10-14T22:20:52.678Z,14.55
2022-10-14T22:21:55.977Z,12.32
2022-10-14T22:23:09.933Z,6.41
2022-10-14T22:25:43.818Z,8.08
2022-10-14T22:26:47.191Z,7.29
2022-10-14T22:27:50.691Z,9.51
2022-10-14T22:28:54.558Z,10.01
2022-10-14T22:30:00.233Z,6.02
2022-10-14T22:31:03.401Z,7.24
2022-10-14T22:32:06.890Z,8.27
2022-10-14T22:33:10.708Z,11.84
2022-10-14T22:34:14.292Z,7.34
2022-10-14T22:35:17.867Z,8.04
2022-10-14T22:36:24.193Z,7.18
2022-10-14T22:37:27.837Z,8.13
2022-10-14T22:38:30.906Z,7.32
2022-10-14T22:39:34.508Z,15.28
2022-10-14T22:40:51.253Z,10.54
2022-10-14T22:41:55.613Z,15.00
2022-10-14T22:42:59.505Z,14.03
2022-10-14T22:44:02.888Z,12.84
2022-10-14T22:45:06.784Z,16.92
2022-10-14T22:46:10.913Z,6.99
2022-10-14T22:47:14.496Z,6.75
2022-10-14T22:48:17.867Z,6.44
2022-10-14T22:49:27.779Z,8.71
2022-10-14T22:50:34.994Z,6.34
2022-10-14T22:51:41.591Z,8.08
2022-10-14T22:52:45.550Z,7.39
2022-10-14T22:53:50.273Z,9.78
2022-10-14T22:54:56.191Z,7.26
2022-10-14T22:56:01.033Z,10.41
2022-10-14T22:57:04.432Z,6.00
2022-10-14T22:58:12.935Z,6.08
2022-10-14T22:59:16.427Z,6.47
2022-10-14T23:00:22.979Z,6.30
2022-10-14T23:01:26.474Z,4.39
2022-10-14T23:02:30.979Z,5.04
2022-10-14T23:03:34.898Z,4.07
2022-10-14T23:04:38.373Z,6.04
2022-10-14T23:05:42.463Z,6.59
2022-10-14T23:06:46.563Z,5.29
2022-10-14T23:07:50.064Z,6.02
2022-10-14T23:09:05.256Z,6.08
2022-10-14T23:10:09.014Z,5.81
2022-10-14T23:11:12.610Z,4.36
2022-10-14T23:12:22.100Z,6.92
2022-10-14T23:13:25.633Z,6.14
2022-10-14T23:14:29.025Z,6.19
2022-10-14T23:15:32.214Z,5.53
2022-10-14T23:16:37.551Z,7.25
2022-10-14T23:17:40.821Z,6.58
2022-10-14T23:18:44.512Z,8.80
2022-10-14T23:19:48.206Z,5.01
2022-10-14T23:20:54.543Z,4.39
2022-10-14T23:21:58.043Z,4.67
2022-10-14T23:23:01.125Z,6.64
2022-10-14T23:24:05.332Z,5.72
2022-10-14T23:25:09.029Z,6.55
2022-10-14T23:26:14.302Z,5.23
2022-10-14T23:27:19.069Z,6.65
2022-10-14T23:28:22.908Z,5.06
2022-10-14T23:29:26.012Z,4.38
2022-10-14T23:30:29.450Z,2.38
2022-10-14T23:31:33.037Z,3.24
2022-10-14T23:32:36.421Z,4.05
2022-10-14T23:33:40.124Z,2.35
2022-10-14T23:34:43.812Z,3.33
2022-10-14T23:35:53.832Z,2.16
2022-10-14T23:36:57.447Z,3.67
2022-10-14T23:38:01.438Z,5.13
2022-10-14T23:39:18.461Z,4.61
2022-10-14T23:40:22.147Z,2.76
2022-10-14T23:41:25.428Z,3.95
2022-10-14T23:42:29.129Z,3.83
2022-10-14T23:43:33.836Z,2.81
2022-10-14T23:44:41.528Z,3.69
2022-10-14T23:46:56.094Z,2.55
2022-10-14T23:47:59.569Z,2.45
2022-10-14T23:49:07.956Z,2.63
2022-10-14T23:50:07.359Z,3.74
2022-10-14T23:51:14.912Z,5.75
2022-10-14T23:52:21.128Z,2.72
2022-10-14T23:53:25.104Z,3.51
2022-10-14T23:54:28.803Z,3.79
2022-10-14T23:55:40.990Z,3.52
2022-10-14T23:56:43.980Z,3.84
2022-10-14T23:57:47.876Z,3.96
2022-10-14T23:58:51.970Z,3.74
2022-10-14T23:59:55.660Z,3.16
